Onaga, Kansas
Current Conditions -  °F | °C
As of 11:15 AM on Wednesday 26 Nov 2014 (Local Time) from KMYZ Reporting Station
Overcast Overcast  
Wind Chill: 21°   Ceiling: 1700
Heat Index: 34°   Visibility: 10mi
Dew Point: 27°   Wind: 26mph
Humidity: 75%   Direction: 330°NNW
Pressure: 30.1"   Gusts: 35mph
Location:  39.49°N, 96.17°W
Report Text: KMYZ 261715Z AUTO 33023G30KT 10SM OVC017 01/M03 A3010 RMK AO2
Loading
Personal Weather Stations






























Interactive Weather Map New forecast layout! Learn more

10-Day Weather Forecast

Advertisements
Track Severe Weather on mobile